createdAt,value
2022-11-29T00:02:07.518Z,6.05
2022-11-29T00:04:36.631Z,6.05
2022-11-29T00:07:05.132Z,6.03
2022-11-29T00:09:33.577Z,6.03
2022-11-29T00:12:14.231Z,6.01
2022-11-29T00:14:45.963Z,6.00
2022-11-29T00:17:15.014Z,5.99
2022-11-29T00:19:45.435Z,5.97
2022-11-29T00:22:14.085Z,5.96
2022-11-29T00:24:43.907Z,5.93
2022-11-29T00:27:12.656Z,5.91
2022-11-29T00:29:42.218Z,5.90
2022-11-29T00:32:12.479Z,5.88
2022-11-29T00:34:41.000Z,5.85
2022-11-29T00:37:09.707Z,5.85
2022-11-29T00:39:38.111Z,5.86
2022-11-29T00:42:06.960Z,5.85
2022-11-29T00:44:35.580Z,5.84
2022-11-29T00:47:05.263Z,5.83
2022-11-29T00:49:35.630Z,5.83
2022-11-29T00:52:04.380Z,5.85
2022-11-29T00:54:32.939Z,5.83
2022-11-29T00:57:01.550Z,5.84
2022-11-29T00:59:30.690Z,5.84
2022-11-29T01:01:59.775Z,5.84
2022-11-29T01:04:28.398Z,5.82
2022-11-29T01:06:59.498Z,5.81
2022-11-29T01:09:28.155Z,5.78
2022-11-29T01:11:56.730Z,5.76
2022-11-29T01:14:25.425Z,5.72
2022-11-29T01:16:53.952Z,5.70
2022-11-29T01:19:22.576Z,5.71
2022-11-29T01:21:51.149Z,5.69
2022-11-29T01:24:22.372Z,5.68
2022-11-29T01:26:50.664Z,5.67
2022-11-29T01:29:19.141Z,5.67
2022-11-29T01:31:47.565Z,5.67
2022-11-29T01:34:16.119Z,5.67
2022-11-29T01:36:44.651Z,5.68
2022-11-29T01:39:13.804Z,5.70
2022-11-29T01:41:44.639Z,5.71
2022-11-29T01:44:46.634Z,5.75
2022-11-29T01:47:15.332Z,5.75
2022-11-29T01:49:46.970Z,5.77
2022-11-29T01:52:19.824Z,5.77
2022-11-29T01:54:52.510Z,5.81
2022-11-29T01:57:23.495Z,5.77
2022-11-29T01:59:57.076Z,5.77
2022-11-29T02:02:32.730Z,5.75
2022-11-29T02:05:03.451Z,5.73
2022-11-29T02:07:32.857Z,5.70
2022-11-29T02:10:01.729Z,5.69
2022-11-29T02:12:41.798Z,5.64
2022-11-29T02:15:25.568Z,5.60
2022-11-29T02:18:10.409Z,5.63
2022-11-29T02:21:17.601Z,5.59
2022-11-29T02:24:42.181Z,5.64
2022-11-29T02:27:40.988Z,5.65
2022-11-29T02:30:34.294Z,5.66
2022-11-29T02:33:30.611Z,5.67
2022-11-29T02:36:20.910Z,5.66
2022-11-29T02:39:17.490Z,5.64
2022-11-29T02:42:07.678Z,5.63
2022-11-29T02:45:11.373Z,5.62
2022-11-29T02:47:54.789Z,5.58
2022-11-29T02:50:41.443Z,5.54
2022-11-29T02:53:17.671Z,5.47
2022-11-29T02:55:55.207Z,5.46
2022-11-29T02:58:29.480Z,5.42
2022-11-29T03:01:09.484Z,5.40
2022-11-29T03:03:45.070Z,5.40
2022-11-29T03:06:24.093Z,5.40
2022-11-29T03:09:02.559Z,5.39
2022-11-29T03:11:39.882Z,5.40
2022-11-29T03:14:19.093Z,5.37
2022-11-29T03:17:01.204Z,5.34
2022-11-29T03:19:56.983Z,5.29
2022-11-29T03:22:41.819Z,5.26
2022-11-29T03:25:15.000Z,5.28
2022-11-29T03:27:48.205Z,5.27
2022-11-29T03:30:19.970Z,5.23
2022-11-29T03:32:56.995Z,5.21
2022-11-29T03:35:35.292Z,5.24
2022-11-29T03:38:16.054Z,5.21
2022-11-29T03:40:52.453Z,5.18
2022-11-29T03:43:28.556Z,5.20
2022-11-29T03:46:01.440Z,5.16
2022-11-29T03:48:35.851Z,5.19
2022-11-29T03:51:10.058Z,5.20
2022-11-29T03:53:49.850Z,5.24
2022-11-29T03:56:29.983Z,5.25
2022-11-29T03:59:13.643Z,5.28
2022-11-29T04:02:05.874Z,5.29
2022-11-29T04:05:11.854Z,5.31
2022-11-29T04:08:02.070Z,5.33
2022-11-29T04:10:49.769Z,5.35
2022-11-29T04:13:49.124Z,5.39
2022-11-29T04:16:54.841Z,5.38
2022-11-29T04:20:01.396Z,5.40
2022-11-29T04:22:57.011Z,5.41
2022-11-29T04:25:44.818Z,5.46
2022-11-29T04:28:54.978Z,5.47
2022-11-29T04:31:38.474Z,5.48
2022-11-29T04:34:54.805Z,5.49
2022-11-29T04:37:39.996Z,5.49
2022-11-29T04:40:28.309Z,5.49
2022-11-29T04:43:23.088Z,5.49
2022-11-29T04:46:15.992Z,5.50
2022-11-29T04:49:08.236Z,5.51
2022-11-29T04:51:57.299Z,5.51
2022-11-29T04:54:36.351Z,5.53
2022-11-29T04:57:11.089Z,5.56
2022-11-29T04:59:46.591Z,5.57
2022-11-29T05:02:28.067Z,5.60
2022-11-29T05:05:06.132Z,5.63
2022-11-29T05:07:46.014Z,5.63
2022-11-29T05:10:23.967Z,5.64
2022-11-29T05:13:01.240Z,5.64
2022-11-29T05:15:51.739Z,5.65
2022-11-29T05:18:40.063Z,5.67
2022-11-29T05:21:16.288Z,5.68
2022-11-29T05:23:56.760Z,5.69
2022-11-29T05:26:30.789Z,5.68
2022-11-29T05:29:05.263Z,5.68
2022-11-29T05:31:57.419Z,5.69
2022-11-29T05:34:56.087Z,5.69
2022-11-29T05:37:35.104Z,5.68
2022-11-29T05:40:32.530Z,5.67
2022-11-29T05:43:17.191Z,5.61
2022-11-29T05:45:51.333Z,5.56
2022-11-29T05:48:28.455Z,5.55
2022-11-29T05:51:12.814Z,5.51
2022-11-29T05:53:49.986Z,5.42
2022-11-29T05:56:29.169Z,5.30
2022-11-29T05:59:01.810Z,5.23
2022-11-29T06:01:38.098Z,5.23
2022-11-29T06:04:15.117Z,5.20
2022-11-29T06:06:49.601Z,5.13
2022-11-29T06:09:27.782Z,5.05
2022-11-29T06:12:03.012Z,5.01
2022-11-29T06:15:00.624Z,4.92
2022-11-29T06:17:43.665Z,4.87
2022-11-29T06:20:42.273Z,4.76
2022-11-29T06:23:29.392Z,4.79
2022-11-29T06:26:12.247Z,4.79
2022-11-29T06:28:59.082Z,4.79
2022-11-29T06:31:34.210Z,4.76
2022-11-29T06:34:11.405Z,4.73
2022-11-29T06:36:46.377Z,4.74
2022-11-29T06:39:19.256Z,4.76
2022-11-29T06:41:49.179Z,4.78
2022-11-29T06:44:18.341Z,4.78
2022-11-29T06:46:50.385Z,4.78
2022-11-29T06:49:26.679Z,4.78
2022-11-29T06:52:06.902Z,4.77
2022-11-29T06:54:53.746Z,4.74
2022-11-29T06:57:30.353Z,4.70
2022-11-29T07:00:12.037Z,4.65
2022-11-29T07:03:11.382Z,4.59
2022-11-29T07:05:41.152Z,4.56
2022-11-29T07:08:16.469Z,4.52
2022-11-29T07:10:51.110Z,4.56
2022-11-29T07:13:21.940Z,4.63
2022-11-29T07:16:01.116Z,4.69
2022-11-29T07:18:45.163Z,4.75
2022-11-29T07:21:24.390Z,4.77
2022-11-29T07:24:02.043Z,4.82
2022-11-29T07:26:41.246Z,4.88
2022-11-29T07:29:25.006Z,4.91
2022-11-29T07:32:15.134Z,4.91
2022-11-29T07:34:55.693Z,4.94
2022-11-29T07:37:35.356Z,4.97
2022-11-29T07:40:19.104Z,4.99
2022-11-29T07:43:02.748Z,4.99
2022-11-29T07:45:36.371Z,5.00
2022-11-29T07:48:08.695Z,4.98
2022-11-29T07:50:45.417Z,5.01
2022-11-29T07:53:18.298Z,5.04
2022-11-29T07:55:47.618Z,5.06
2022-11-29T07:58:22.463Z,5.10
2022-11-29T08:00:52.000Z,5.10
2022-11-29T08:03:22.015Z,5.15
2022-11-29T08:05:51.502Z,5.18
2022-11-29T08:08:19.831Z,5.20
2022-11-29T08:11:13.494Z,5.21
2022-11-29T08:13:57.624Z,5.21
2022-11-29T08:16:43.780Z,5.23
2022-11-29T08:19:14.065Z,5.26
2022-11-29T08:21:47.034Z,5.29
2022-11-29T08:24:16.092Z,5.33
2022-11-29T08:26:44.852Z,5.34
2022-11-29T08:29:15.654Z,5.35
2022-11-29T08:31:44.423Z,5.37
2022-11-29T08:34:13.825Z,5.40
2022-11-29T08:36:42.729Z,5.42
2022-11-29T08:39:11.478Z,5.47
2022-11-29T08:41:40.474Z,5.51
2022-11-29T08:44:09.361Z,5.55
2022-11-29T08:46:56.592Z,5.57
2022-11-29T08:49:25.115Z,5.61
2022-11-29T08:52:14.441Z,5.65
2022-11-29T08:54:42.075Z,5.64
2022-11-29T08:57:38.463Z,5.65
2022-11-29T08:59:59.502Z,5.68
2022-11-29T09:02:29.670Z,5.68
2022-11-29T09:04:58.375Z,5.70
2022-11-29T09:07:27.042Z,5.73
2022-11-29T09:09:55.303Z,5.78
2022-11-29T09:12:23.698Z,5.82
2022-11-29T09:14:52.027Z,5.87
2022-11-29T09:17:20.365Z,5.89
2022-11-29T09:19:50.427Z,5.93
2022-11-29T09:22:19.161Z,5.94
2022-11-29T09:24:48.214Z,5.95
2022-11-29T09:27:17.247Z,5.99
2022-11-29T09:29:45.573Z,6.02
2022-11-29T09:32:14.340Z,6.02
2022-11-29T09:34:43.364Z,6.04
2022-11-29T09:37:14.304Z,6.07
2022-11-29T09:39:42.697Z,6.10
2022-11-29T09:42:23.948Z,6.11
2022-11-29T09:45:04.601Z,6.13
2022-11-29T09:47:58.347Z,6.15
2022-11-29T09:50:34.971Z,6.19
2022-11-29T09:53:21.079Z,6.21
2022-11-29T09:56:01.382Z,6.24
2022-11-29T09:58:34.599Z,6.27
2022-11-29T10:01:07.933Z,6.28
2022-11-29T10:03:42.832Z,6.30
2022-11-29T10:06:21.242Z,6.33
2022-11-29T10:08:57.469Z,6.35
2022-11-29T10:11:30.966Z,6.38
2022-11-29T10:14:03.367Z,6.42
2022-11-29T10:16:43.342Z,6.44
2022-11-29T10:19:21.554Z,6.48
2022-11-29T10:22:01.099Z,6.50
2022-11-29T10:24:33.045Z,6.52
2022-11-29T10:27:01.715Z,6.54
2022-11-29T10:29:30.084Z,6.57
2022-11-29T10:32:10.052Z,6.61
2022-11-29T10:34:40.303Z,6.68
2022-11-29T10:37:15.123Z,6.71
2022-11-29T10:39:49.339Z,6.74
2022-11-29T10:42:39.756Z,6.78
2022-11-29T10:45:18.156Z,6.82
2022-11-29T10:47:50.181Z,6.88
2022-11-29T10:50:23.570Z,6.94
2022-11-29T10:52:54.712Z,6.98
2022-11-29T10:55:35.450Z,7.01
2022-11-29T10:58:14.054Z,7.03
2022-11-29T11:00:55.056Z,7.06
2022-11-29T11:03:32.700Z,7.08
2022-11-29T11:06:10.126Z,7.11
2022-11-29T11:08:40.782Z,7.12
2022-11-29T11:11:12.772Z,7.16
2022-11-29T11:13:42.559Z,7.17
2022-11-29T11:16:18.351Z,7.17
2022-11-29T11:18:49.335Z,7.21
2022-11-29T11:21:20.969Z,7.23
2022-11-29T11:23:56.690Z,7.26
2022-11-29T11:26:28.370Z,7.33
2022-11-29T11:29:00.467Z,7.37
2022-11-29T11:31:33.098Z,7.39
2022-11-29T11:34:26.252Z,7.43
2022-11-29T11:36:56.451Z,7.48
2022-11-29T11:39:26.067Z,7.55
2022-11-29T11:42:13.320Z,7.58
2022-11-29T11:44:50.499Z,7.63
2022-11-29T11:47:22.744Z,7.69
2022-11-29T11:49:55.892Z,7.74
2022-11-29T11:52:27.152Z,7.78
2022-11-29T11:54:59.020Z,7.89
2022-11-29T11:57:30.674Z,8.06
2022-11-29T12:00:06.626Z,8.15
2022-11-29T12:02:40.391Z,8.20
2022-11-29T12:05:16.037Z,8.18
2022-11-29T12:08:09.372Z,8.24
2022-11-29T12:10:40.425Z,8.22
2022-11-29T12:13:22.110Z,8.05
2022-11-29T12:15:53.817Z,8.03
2022-11-29T12:18:30.561Z,7.95
2022-11-29T12:21:03.334Z,7.90
2022-11-29T12:23:42.182Z,7.97
2022-11-29T12:26:48.593Z,8.00
2022-11-29T12:29:14.976Z,8.00
2022-11-29T12:31:57.050Z,8.08
2022-11-29T12:34:54.860Z,8.11
2022-11-29T12:37:32.955Z,8.16
2022-11-29T12:40:13.064Z,8.15
2022-11-29T12:42:50.941Z,8.21
2022-11-29T12:45:38.016Z,8.28
2022-11-29T12:48:19.835Z,8.46
2022-11-29T12:50:58.457Z,8.48
2022-11-29T12:53:42.991Z,8.37
2022-11-29T12:56:17.874Z,8.36
2022-11-29T12:59:12.682Z,8.27
2022-11-29T13:02:05.552Z,8.32
2022-11-29T13:04:45.573Z,8.34
2022-11-29T13:07:26.081Z,8.30
2022-11-29T13:10:21.657Z,8.32
2022-11-29T13:12:55.419Z,8.43
2022-11-29T13:15:30.364Z,8.34
2022-11-29T13:18:08.810Z,8.30
2022-11-29T13:20:43.567Z,8.40
2022-11-29T13:23:20.905Z,8.38
2022-11-29T13:25:52.382Z,8.35
2022-11-29T13:28:27.428Z,8.37
2022-11-29T13:31:02.200Z,8.39
2022-11-29T13:33:36.421Z,8.37
2022-11-29T13:36:16.101Z,8.27
2022-11-29T13:38:52.652Z,8.25
2022-11-29T13:41:31.142Z,8.21
2022-11-29T13:44:10.368Z,8.27
2022-11-29T13:46:54.431Z,8.31
2022-11-29T13:49:45.549Z,8.36
2022-11-29T13:52:39.211Z,8.37
2022-11-29T13:55:29.582Z,8.35
2022-11-29T13:58:22.743Z,8.39
2022-11-29T14:00:53.077Z,8.40
2022-11-29T14:03:36.842Z,8.36
2022-11-29T14:06:12.088Z,8.37
2022-11-29T14:09:17.339Z,8.34
2022-11-29T14:11:46.622Z,8.36
2022-11-29T14:14:24.903Z,8.30
2022-11-29T14:16:57.862Z,8.28
2022-11-29T14:19:33.409Z,8.24
2022-11-29T14:22:32.065Z,8.29
2022-11-29T14:25:49.896Z,8.25
2022-11-29T14:28:30.346Z,8.17
2022-11-29T14:31:02.016Z,8.20
2022-11-29T14:33:50.764Z,8.18
2022-11-29T14:36:44.351Z,8.15
2022-11-29T14:39:31.414Z,8.12
2022-11-29T14:42:17.221Z,8.09
2022-11-29T14:44:51.703Z,8.08
2022-11-29T14:47:33.343Z,8.05
2022-11-29T14:50:06.975Z,8.02
2022-11-29T14:52:39.637Z,7.92
2022-11-29T14:55:31.668Z,7.81
2022-11-29T14:58:23.600Z,7.70
2022-11-29T15:01:09.570Z,7.62
2022-11-29T15:03:49.991Z,7.54
2022-11-29T15:06:29.367Z,7.47
2022-11-29T15:09:06.162Z,7.41
2022-11-29T15:11:52.274Z,7.35
2022-11-29T15:14:27.490Z,7.29
2022-11-29T15:17:11.031Z,7.24
2022-11-29T15:20:13.412Z,7.19
2022-11-29T15:22:52.620Z,7.16
2022-11-29T15:25:23.127Z,7.09
2022-11-29T15:27:55.118Z,7.06
2022-11-29T15:30:31.820Z,7.04
2022-11-29T15:33:02.387Z,7.00
2022-11-29T15:35:31.427Z,6.96
2022-11-29T15:38:00.029Z,6.92
2022-11-29T15:40:35.900Z,6.85
2022-11-29T15:43:18.630Z,6.83
2022-11-29T15:45:52.147Z,6.81
2022-11-29T15:48:23.939Z,6.79
2022-11-29T15:51:04.922Z,6.72
2022-11-29T15:53:40.465Z,6.68
2022-11-29T15:56:16.900Z,6.60
2022-11-29T15:58:53.848Z,6.56
2022-11-29T16:01:23.196Z,6.50
2022-11-29T16:03:56.081Z,6.46
2022-11-29T16:06:30.707Z,6.41
2022-11-29T16:09:02.196Z,6.36
2022-11-29T16:11:34.475Z,6.30
2022-11-29T16:14:19.404Z,6.24
2022-11-29T16:16:52.619Z,6.20
2022-11-29T16:19:30.964Z,6.18
2022-11-29T16:22:11.195Z,6.15
2022-11-29T16:24:42.078Z,6.11
2022-11-29T16:27:14.344Z,6.10
2022-11-29T16:29:47.619Z,6.09
2022-11-29T16:32:28.176Z,6.09
2022-11-29T16:34:58.583Z,6.06
2022-11-29T16:37:30.878Z,6.05
2022-11-29T16:40:03.109Z,6.05
2022-11-29T16:42:36.444Z,6.04
2022-11-29T16:45:27.142Z,5.97
2022-11-29T16:47:58.998Z,5.97
2022-11-29T16:50:30.251Z,5.97
2022-11-29T16:53:34.205Z,5.95
2022-11-29T16:56:03.162Z,5.90
2022-11-29T16:58:31.960Z,5.87
2022-11-29T17:01:16.681Z,5.82
2022-11-29T17:03:45.821Z,5.81
2022-11-29T17:06:16.399Z,5.80
2022-11-29T17:08:45.725Z,5.78
2022-11-29T17:11:14.783Z,5.76
2022-11-29T17:13:43.968Z,5.74
2022-11-29T17:16:20.941Z,5.69
2022-11-29T17:18:49.846Z,5.59
2022-11-29T17:21:20.212Z,5.52
2022-11-29T17:23:51.388Z,5.51
2022-11-29T17:26:21.242Z,5.51
2022-11-29T17:28:51.302Z,5.47
2022-11-29T17:31:25.286Z,5.43
2022-11-29T17:33:55.517Z,5.43
2022-11-29T17:36:24.157Z,5.40
2022-11-29T17:38:52.599Z,5.39
2022-11-29T17:41:23.715Z,5.37
2022-11-29T17:43:53.812Z,5.32
2022-11-29T17:46:27.518Z,5.31
2022-11-29T17:49:00.232Z,5.33
2022-11-29T17:51:51.322Z,5.32
2022-11-29T17:54:19.192Z,5.31
2022-11-29T17:56:55.354Z,5.29
2022-11-29T17:59:23.904Z,5.31
2022-11-29T18:01:55.015Z,5.30
2022-11-29T18:04:23.753Z,5.28
2022-11-29T18:06:57.901Z,5.27
2022-11-29T18:09:26.966Z,5.27
2022-11-29T18:11:55.676Z,5.23
2022-11-29T18:14:29.533Z,5.21
2022-11-29T18:17:01.723Z,5.22
2022-11-29T18:19:32.368Z,5.19
2022-11-29T18:22:02.550Z,5.16
2022-11-29T18:24:31.710Z,5.15
2022-11-29T18:27:00.560Z,5.15
2022-11-29T18:29:36.463Z,5.16
2022-11-29T18:32:10.188Z,5.16
2022-11-29T18:34:38.892Z,5.16
2022-11-29T18:37:11.103Z,5.16
2022-11-29T18:39:46.379Z,5.18
2022-11-29T18:42:15.815Z,5.18
2022-11-29T18:44:45.715Z,5.17
2022-11-29T18:47:18.296Z,5.19
2022-11-29T18:49:46.902Z,5.15
2022-11-29T18:52:15.581Z,5.12
2022-11-29T18:54:44.388Z,5.12
2022-11-29T18:57:14.047Z,5.10
2022-11-29T18:59:42.533Z,5.10
2022-11-29T19:02:11.339Z,5.09
2022-11-29T19:04:41.638Z,5.13
2022-11-29T19:07:10.260Z,5.13
2022-11-29T19:09:38.871Z,5.15
2022-11-29T19:12:07.922Z,5.15
2022-11-29T19:14:36.495Z,5.17
2022-11-29T19:17:05.042Z,5.19
2022-11-29T19:19:33.601Z,5.22
2022-11-29T19:22:03.660Z,5.22
2022-11-29T19:24:32.293Z,5.23
2022-11-29T19:27:01.314Z,5.23
2022-11-29T19:29:32.031Z,5.23
2022-11-29T19:32:04.060Z,5.24
2022-11-29T19:34:35.350Z,5.24
2022-11-29T19:37:05.392Z,5.24
2022-11-29T19:39:34.216Z,5.25
2022-11-29T19:42:03.780Z,5.27
2022-11-29T19:44:48.308Z,5.29
2022-11-29T19:47:22.215Z,5.29
2022-11-29T19:49:50.896Z,5.26
2022-11-29T19:52:21.179Z,5.25
2022-11-29T19:54:49.874Z,5.25
2022-11-29T19:57:18.360Z,5.24
2022-11-29T19:59:47.613Z,5.27
2022-11-29T20:02:16.607Z,5.24
2022-11-29T20:04:49.597Z,5.19
2022-11-29T20:07:18.248Z,5.15
2022-11-29T20:09:49.067Z,5.14
2022-11-29T20:12:19.805Z,5.10
2022-11-29T20:14:48.624Z,5.08
2022-11-29T20:17:17.223Z,5.06
2022-11-29T20:19:46.190Z,5.09
2022-11-29T20:22:14.975Z,5.10
2022-11-29T20:24:45.605Z,5.09
2022-11-29T20:27:15.761Z,5.04
2022-11-29T20:29:44.808Z,4.97
2022-11-29T20:32:15.152Z,4.92
2022-11-29T20:34:44.608Z,4.89
2022-11-29T20:37:30.733Z,4.81
2022-11-29T20:40:02.661Z,4.80
2022-11-29T20:42:59.240Z,4.78
2022-11-29T20:45:28.560Z,4.77
2022-11-29T20:48:02.886Z,4.76
2022-11-29T20:50:33.497Z,4.76
2022-11-29T20:53:28.088Z,4.72
2022-11-29T20:55:56.725Z,4.73
2022-11-29T20:58:27.620Z,4.75
2022-11-29T21:00:59.517Z,4.75
2022-11-29T21:03:29.555Z,4.75
2022-11-29T21:05:59.069Z,4.75
2022-11-29T21:08:28.129Z,4.75
2022-11-29T21:11:02.775Z,4.73
2022-11-29T21:13:34.431Z,4.73
2022-11-29T21:16:03.994Z,4.73
2022-11-29T21:18:34.277Z,4.74
2022-11-29T21:21:15.588Z,4.80
2022-11-29T21:23:55.829Z,4.80
2022-11-29T21:26:30.275Z,4.81
2022-11-29T21:29:14.023Z,4.82
2022-11-29T21:31:43.203Z,4.81
2022-11-29T21:34:11.939Z,4.80
2022-11-29T21:36:40.959Z,4.77
2022-11-29T21:39:14.194Z,4.78
2022-11-29T21:41:43.018Z,4.77
2022-11-29T21:44:13.137Z,4.80
2022-11-29T21:46:41.935Z,4.81
2022-11-29T21:49:10.582Z,4.81
2022-11-29T21:51:39.122Z,4.80
2022-11-29T21:54:07.730Z,4.79
2022-11-29T21:56:36.479Z,4.80
2022-11-29T21:59:06.251Z,4.82
2022-11-29T22:01:36.636Z,4.82
2022-11-29T22:04:05.851Z,4.78
2022-11-29T22:06:34.539Z,4.78
2022-11-29T22:09:03.142Z,4.82
2022-11-29T22:11:32.101Z,4.83
2022-11-29T22:14:16.088Z,4.81
2022-11-29T22:16:48.898Z,4.82
2022-11-29T22:19:19.109Z,4.81
2022-11-29T22:21:49.901Z,4.80
2022-11-29T22:24:21.275Z,4.79
2022-11-29T22:26:50.884Z,4.82
2022-11-29T22:29:19.548Z,4.81
2022-11-29T22:31:55.481Z,4.81
2022-11-29T22:34:25.532Z,4.79
2022-11-29T22:36:54.092Z,4.77
2022-11-29T22:39:22.903Z,4.76
2022-11-29T22:41:54.652Z,4.77
2022-11-29T22:44:23.985Z,4.77
2022-11-29T22:46:53.974Z,4.79
2022-11-29T22:49:22.639Z,4.78
2022-11-29T22:51:51.296Z,4.77
2022-11-29T22:54:20.594Z,4.78
2022-11-29T22:56:50.416Z,4.75
2022-11-29T22:59:20.835Z,4.73
2022-11-29T23:01:49.745Z,4.73
2022-11-29T23:04:19.713Z,4.73
2022-11-29T23:06:48.247Z,4.74
2022-11-29T23:09:22.684Z,4.74
2022-11-29T23:11:53.380Z,4.74
2022-11-29T23:14:22.427Z,4.76
2022-11-29T23:16:51.388Z,4.78
2022-11-29T23:19:21.971Z,4.77
2022-11-29T23:21:50.638Z,4.79
2022-11-29T23:24:19.164Z,4.79
2022-11-29T23:26:48.577Z,4.77
2022-11-29T23:29:20.444Z,4.76
2022-11-29T23:31:49.291Z,4.77
2022-11-29T23:34:17.869Z,4.78
2022-11-29T23:36:52.687Z,4.77
2022-11-29T23:39:22.659Z,4.76
2022-11-29T23:41:51.279Z,4.76
2022-11-29T23:44:20.669Z,4.76
2022-11-29T23:46:49.462Z,4.73
2022-11-29T23:49:18.104Z,4.73
2022-11-29T23:51:48.216Z,4.69
2022-11-29T23:54:16.709Z,4.68
2022-11-29T23:56:45.103Z,4.69
2022-11-29T23:59:13.616Z,4.69
